Fort Abbas Weather



Fort Abbas's Current Weather

Temprature 23.49o scattered clouds

scattered clouds

Rain: 0 %

Min Temprature23.49o
Max Temprature23.49o
Humidity33
Wind Speed4.02 m/h
Sun Rise07:00:26
Sun Set17:41:40
Current Time: 27-Jan-2020 18:28:39
Lat/Lon: 29.19, 72.85




Fort Abbas's Geo Location



Fort Abbas's Weather Forecast

Time Overall Temp Min Temp Max Temp Humidity Wind Speed Rain
27-Jan-2020 (Mon)
20:00:00 clear sky 17.260 17.260 17.260 60 6.52 m/h 0 %
23:00:00 scattered clouds 14.320 14.320 14.320 76 5.54 m/h 0 %
28-Jan-2020 (Tue)
02:00:00 overcast clouds 13.260 13.260 13.260 82 3.93 m/h 0 %
05:00:00 overcast clouds 11.870 11.870 11.870 88 5.01 m/h 0 %
08:00:00 light rain 11.920 11.920 11.920 87 2.3 m/h 25 %
11:00:00 broken clouds 15.410 15.410 15.410 69 4.27 m/h 0 %
14:00:00 clear sky 18.720 18.720 18.720 53 5.51 m/h 0 %
17:00:00 clear sky 17.560 17.560 17.560 55 4.81 m/h 0 %
20:00:00 broken clouds 16.210 16.210 16.210 59 3.07 m/h 0 %
23:00:00 scattered clouds 13.810 13.810 13.810 68 1.81 m/h 0 %
29-Jan-2020 (Wed)
02:00:00 clear sky 12.680 12.680 12.680 65 1.75 m/h 0 %
05:00:00 clear sky 11.590 11.590 11.590 75 1.88 m/h 0 %
08:00:00 clear sky 12.750 12.750 12.750 70 1.66 m/h 0 %
11:00:00 clear sky 16.510 16.510 16.510 51 1.06 m/h 0 %
14:00:00 clear sky 19.390 19.390 19.390 34 2.24 m/h 0 %
17:00:00 clear sky 19.480 19.480 19.480 32 2.19 m/h 0 %
20:00:00 clear sky 16.910 16.910 16.910 40 3.09 m/h 0 %
23:00:00 clear sky 14.920 14.920 14.920 46 4.1 m/h 0 %
30-Jan-2020 (Thu)
02:00:00 clear sky 13.250 13.250 13.250 64 3.23 m/h 0 %
05:00:00 clear sky 12.030 12.030 12.030 66 3.01 m/h 0 %
08:00:00 clear sky 12.670 12.670 12.670 65 2.03 m/h 0 %
11:00:00 clear sky 17.270 17.270 17.270 44 1.27 m/h 0 %
14:00:00 clear sky 19.610 19.610 19.610 33 1.49 m/h 0 %
17:00:00 clear sky 19.530 19.530 19.530 29 2.32 m/h 0 %
20:00:00 clear sky 16.700 16.700 16.700 36 2.22 m/h 0 %
23:00:00 clear sky 15.470 15.470 15.470 37 2.88 m/h 0 %
31-Jan-2020 (Fri)
02:00:00 clear sky 13.560 13.560 13.560 40 2.21 m/h 0 %
05:00:00 clear sky 12.680 12.680 12.680 38 2.47 m/h 0 %
08:00:00 clear sky 13.430 13.430 13.430 38 2.09 m/h 0 %
11:00:00 clear sky 18.650 18.650 18.650 28 2.08 m/h 0 %
14:00:00 clear sky 20.770 20.770 20.770 24 1.62 m/h 0 %
17:00:00 clear sky 20.690 20.690 20.690 24 1.88 m/h 0 %
20:00:00 clear sky 17.280 17.280 17.280 31 3.35 m/h 0 %
23:00:00 clear sky 16.180 16.180 16.180 33 3.12 m/h 0 %
01-Feb-2020 (Sat)
02:00:00 clear sky 14.310 14.310 14.310 40 3.37 m/h 0 %
05:00:00 clear sky 12.860 12.860 12.860 45 3.06 m/h 0 %
08:00:00 clear sky 13.710 13.710 13.710 44 3.07 m/h 0 %
11:00:00 clear sky 18.960 18.960 18.960 31 2.42 m/h 0 %
14:00:00 clear sky 20.980 20.980 20.980 24 1.33 m/h 0 %
17:00:00 clear sky 20.780 20.780 20.780 23 2.8 m/h 0 %

Famous Cities (61)